sensor_id;sensor_type;location;lat;lon;timestamp;P1;durP1;ratioP1;P2;durP2;ratioP2
8159;SDS011;27404;52.398;9.646;2022-07-18T00:01:32;6.53;;;2.90;;
8159;SDS011;27404;52.398;9.646;2022-07-18T00:03:58;7.47;;;3.20;;
8159;SDS011;27404;52.398;9.646;2022-07-18T00:06:23;6.47;;;3.07;;
8159;SDS011;27404;52.398;9.646;2022-07-18T00:08:49;5.10;;;3.07;;
8159;SDS011;27404;52.398;9.646;2022-07-18T00:11:15;4.23;;;2.90;;
8159;SDS011;27404;52.398;9.646;2022-07-18T00:13:40;4.73;;;2.50;;
8159;SDS011;27404;52.398;9.646;2022-07-18T00:16:06;5.37;;;2.90;;
8159;SDS011;27404;52.398;9.646;2022-07-18T00:18:31;6.37;;;3.03;;
8159;SDS011;27404;52.398;9.646;2022-07-18T00:20:57;4.63;;;2.80;;
8159;SDS011;27404;52.398;9.646;2022-07-18T00:23:22;5.73;;;3.20;;
8159;SDS011;27404;52.398;9.646;2022-07-18T00:25:48;5.73;;;3.00;;
8159;SDS011;27404;52.398;9.646;2022-07-18T00:28:13;5.10;;;2.40;;
8159;SDS011;27404;52.398;9.646;2022-07-18T00:30:39;4.50;;;2.60;;
8159;SDS011;27404;52.398;9.646;2022-07-18T00:33:05;5.10;;;2.90;;
8159;SDS011;27404;52.398;9.646;2022-07-18T00:35:31;6.27;;;3.00;;
8159;SDS011;27404;52.398;9.646;2022-07-18T00:37:57;5.57;;;2.83;;
8159;SDS011;27404;52.398;9.646;2022-07-18T00:40:22;3.53;;;2.37;;
8159;SDS011;27404;52.398;9.646;2022-07-18T00:42:48;4.00;;;2.77;;
8159;SDS011;27404;52.398;9.646;2022-07-18T00:45:13;4.57;;;2.40;;
8159;SDS011;27404;52.398;9.646;2022-07-18T00:47:39;5.13;;;2.70;;
8159;SDS011;27404;52.398;9.646;2022-07-18T00:50:05;5.70;;;3.30;;
8159;SDS011;27404;52.398;9.646;2022-07-18T00:52:32;8.43;;;3.90;;
8159;SDS011;27404;52.398;9.646;2022-07-18T00:54:58;5.87;;;3.80;;
8159;SDS011;27404;52.398;9.646;2022-07-18T00:57:24;6.60;;;4.07;;
8159;SDS011;27404;52.398;9.646;2022-07-18T00:59:50;6.47;;;3.40;;
8159;SDS011;27404;52.398;9.646;2022-07-18T01:02:35;7.27;;;3.50;;
8159;SDS011;27404;52.398;9.646;2022-07-18T01:05:00;6.83;;;3.87;;
8159;SDS011;27404;52.398;9.646;2022-07-18T01:07:26;6.50;;;3.70;;
8159;SDS011;27404;52.398;9.646;2022-07-18T01:09:51;8.70;;;4.53;;
8159;SDS011;27404;52.398;9.646;2022-07-18T01:12:16;7.37;;;3.97;;
8159;SDS011;27404;52.398;9.646;2022-07-18T01:14:42;6.93;;;4.07;;
8159;SDS011;27404;52.398;9.646;2022-07-18T01:17:11;6.70;;;4.03;;
8159;SDS011;27404;52.398;9.646;2022-07-18T01:19:38;7.23;;;3.93;;
8159;SDS011;27404;52.398;9.646;2022-07-18T01:22:04;9.47;;;4.37;;
8159;SDS011;27404;52.398;9.646;2022-07-18T01:24:29;6.27;;;3.87;;
8159;SDS011;27404;52.398;9.646;2022-07-18T01:26:55;7.53;;;4.80;;
8159;SDS011;27404;52.398;9.646;2022-07-18T01:29:20;5.77;;;3.83;;
8159;SDS011;27404;52.398;9.646;2022-07-18T01:31:46;8.73;;;4.43;;
8159;SDS011;27404;52.398;9.646;2022-07-18T01:34:11;7.43;;;4.50;;
8159;SDS011;27404;52.398;9.646;2022-07-18T01:36:37;7.23;;;4.47;;
8159;SDS011;27404;52.398;9.646;2022-07-18T01:39:03;8.70;;;4.70;;
8159;SDS011;27404;52.398;9.646;2022-07-18T01:41:28;8.53;;;4.70;;
8159;SDS011;27404;52.398;9.646;2022-07-18T01:43:54;6.67;;;4.50;;
8159;SDS011;27404;52.398;9.646;2022-07-18T01:46:19;7.37;;;4.67;;
8159;SDS011;27404;52.398;9.646;2022-07-18T01:48:45;12.80;;;4.93;;
8159;SDS011;27404;52.398;9.646;2022-07-18T01:51:10;8.60;;;4.93;;
8159;SDS011;27404;52.398;9.646;2022-07-18T01:53:39;9.03;;;4.97;;
8159;SDS011;27404;52.398;9.646;2022-07-18T01:56:06;7.70;;;4.90;;
8159;SDS011;27404;52.398;9.646;2022-07-18T01:58:32;9.00;;;5.10;;
8159;SDS011;27404;52.398;9.646;2022-07-18T02:00:58;10.57;;;4.97;;
8159;SDS011;27404;52.398;9.646;2022-07-18T02:03:23;9.43;;;5.23;;
8159;SDS011;27404;52.398;9.646;2022-07-18T02:05:49;9.90;;;5.17;;
8159;SDS011;27404;52.398;9.646;2022-07-18T02:08:14;7.77;;;5.47;;
8159;SDS011;27404;52.398;9.646;2022-07-18T02:10:39;7.57;;;5.57;;
8159;SDS011;27404;52.398;9.646;2022-07-18T02:13:05;8.10;;;5.17;;
8159;SDS011;27404;52.398;9.646;2022-07-18T02:15:31;8.37;;;4.77;;
8159;SDS011;27404;52.398;9.646;2022-07-18T02:17:56;7.70;;;4.83;;
8159;SDS011;27404;52.398;9.646;2022-07-18T02:20:22;7.93;;;4.70;;
8159;SDS011;27404;52.398;9.646;2022-07-18T02:22:48;8.97;;;5.07;;
8159;SDS011;27404;52.398;9.646;2022-07-18T02:25:13;11.63;;;5.03;;
8159;SDS011;27404;52.398;9.646;2022-07-18T02:27:39;8.50;;;4.97;;
8159;SDS011;27404;52.398;9.646;2022-07-18T02:30:05;9.93;;;5.83;;
8159;SDS011;27404;52.398;9.646;2022-07-18T02:32:32;12.87;;;6.13;;
8159;SDS011;27404;52.398;9.646;2022-07-18T02:34:59;8.63;;;5.20;;
8159;SDS011;27404;52.398;9.646;2022-07-18T02:37:25;9.30;;;5.03;;
8159;SDS011;27404;52.398;9.646;2022-07-18T02:39:50;6.97;;;4.30;;
8159;SDS011;27404;52.398;9.646;2022-07-18T02:42:16;11.10;;;4.20;;
8159;SDS011;27404;52.398;9.646;2022-07-18T02:44:41;7.63;;;4.47;;
8159;SDS011;27404;52.398;9.646;2022-07-18T02:47:07;6.17;;;4.03;;
8159;SDS011;27404;52.398;9.646;2022-07-18T02:49:32;8.07;;;4.20;;
8159;SDS011;27404;52.398;9.646;2022-07-18T02:52:06;7.13;;;3.90;;
8159;SDS011;27404;52.398;9.646;2022-07-18T02:54:35;8.57;;;4.57;;
8159;SDS011;27404;52.398;9.646;2022-07-18T02:57:02;6.33;;;4.23;;
8159;SDS011;27404;52.398;9.646;2022-07-18T02:59:28;7.83;;;3.83;;
8159;SDS011;27404;52.398;9.646;2022-07-18T03:01:54;10.27;;;4.40;;
8159;SDS011;27404;52.398;9.646;2022-07-18T03:04:20;6.50;;;3.73;;
8159;SDS011;27404;52.398;9.646;2022-07-18T03:06:46;5.77;;;3.87;;
8159;SDS011;27404;52.398;9.646;2022-07-18T03:09:13;9.63;;;3.50;;
8159;SDS011;27404;52.398;9.646;2022-07-18T03:11:39;6.80;;;3.90;;
8159;SDS011;27404;52.398;9.646;2022-07-18T03:14:04;7.57;;;3.63;;
8159;SDS011;27404;52.398;9.646;2022-07-18T03:16:30;10.20;;;3.50;;
8159;SDS011;27404;52.398;9.646;2022-07-18T03:18:56;5.20;;;3.17;;
8159;SDS011;27404;52.398;9.646;2022-07-18T03:21:22;5.43;;;3.27;;
8159;SDS011;27404;52.398;9.646;2022-07-18T03:23:48;7.63;;;3.23;;
8159;SDS011;27404;52.398;9.646;2022-07-18T03:26:13;6.13;;;3.00;;
8159;SDS011;27404;52.398;9.646;2022-07-18T03:28:39;7.90;;;3.07;;
8159;SDS011;27404;52.398;9.646;2022-07-18T03:31:04;7.10;;;3.03;;
8159;SDS011;27404;52.398;9.646;2022-07-18T03:33:30;4.33;;;3.00;;
8159;SDS011;27404;52.398;9.646;2022-07-18T03:35:56;7.10;;;2.67;;
8159;SDS011;27404;52.398;9.646;2022-07-18T03:38:21;6.33;;;3.37;;
8159;SDS011;27404;52.398;9.646;2022-07-18T03:40:47;4.73;;;2.80;;
8159;SDS011;27404;52.398;9.646;2022-07-18T03:43:12;7.27;;;2.73;;
8159;SDS011;27404;52.398;9.646;2022-07-18T03:45:38;4.37;;;2.37;;
8159;SDS011;27404;52.398;9.646;2022-07-18T03:48:03;6.73;;;2.73;;
8159;SDS011;27404;52.398;9.646;2022-07-18T03:50:29;7.97;;;2.93;;
8159;SDS011;27404;52.398;9.646;2022-07-18T03:52:55;7.37;;;3.00;;
8159;SDS011;27404;52.398;9.646;2022-07-18T03:55:21;5.93;;;2.70;;
8159;SDS011;27404;52.398;9.646;2022-07-18T03:57:46;8.10;;;3.40;;
8159;SDS011;27404;52.398;9.646;2022-07-18T04:00:12;7.30;;;2.90;;
8159;SDS011;27404;52.398;9.646;2022-07-18T04:02:45;6.83;;;3.43;;
8159;SDS011;27404;52.398;9.646;2022-07-18T04:05:13;16.00;;;3.70;;
8159;SDS011;27404;52.398;9.646;2022-07-18T04:07:40;7.17;;;2.97;;
8159;SDS011;27404;52.398;9.646;2022-07-18T04:10:06;5.43;;;3.17;;
8159;SDS011;27404;52.398;9.646;2022-07-18T04:12:33;8.67;;;3.23;;
8159;SDS011;27404;52.398;9.646;2022-07-18T04:14:59;8.70;;;3.07;;
8159;SDS011;27404;52.398;9.646;2022-07-18T04:17:24;10.63;;;2.67;;
8159;SDS011;27404;52.398;9.646;2022-07-18T04:19:50;5.00;;;2.60;;
8159;SDS011;27404;52.398;9.646;2022-07-18T04:22:16;6.57;;;2.43;;
8159;SDS011;27404;52.398;9.646;2022-07-18T04:24:41;7.17;;;3.30;;
8159;SDS011;27404;52.398;9.646;2022-07-18T04:27:07;6.13;;;2.40;;
8159;SDS011;27404;52.398;9.646;2022-07-18T04:29:33;7.23;;;2.43;;
8159;SDS011;27404;52.398;9.646;2022-07-18T04:31:58;9.17;;;2.60;;
8159;SDS011;27404;52.398;9.646;2022-07-18T04:34:24;5.80;;;2.50;;
8159;SDS011;27404;52.398;9.646;2022-07-18T04:36:49;6.30;;;2.50;;
8159;SDS011;27404;52.398;9.646;2022-07-18T04:39:15;7.07;;;3.00;;
8159;SDS011;27404;52.398;9.646;2022-07-18T04:41:41;10.97;;;3.40;;
8159;SDS011;27404;52.398;9.646;2022-07-18T04:44:07;11.27;;;3.50;;
8159;SDS011;27404;52.398;9.646;2022-07-18T04:46:33;10.97;;;3.03;;
8159;SDS011;27404;52.398;9.646;2022-07-18T04:48:59;6.27;;;3.20;;
8159;SDS011;27404;52.398;9.646;2022-07-18T04:51:24;9.52;;;2.65;;
8159;SDS011;27404;52.398;9.646;2022-07-18T04:53:49;7.85;;;2.70;;
8159;SDS011;27404;52.398;9.646;2022-07-18T04:56:15;7.10;;;2.10;;
8159;SDS011;27404;52.398;9.646;2022-07-18T04:58:40;11.35;;;2.22;;
8159;SDS011;27404;52.398;9.646;2022-07-18T05:01:06;4.35;;;1.98;;
8159;SDS011;27404;52.398;9.646;2022-07-18T05:03:31;6.10;;;1.83;;
8159;SDS011;27404;52.398;9.646;2022-07-18T05:05:57;4.25;;;1.50;;
8159;SDS011;27404;52.398;9.646;2022-07-18T05:08:22;3.67;;;1.55;;
8159;SDS011;27404;52.398;9.646;2022-07-18T05:10:48;3.80;;;1.73;;
8159;SDS011;27404;52.398;9.646;2022-07-18T05:13:13;2.45;;;1.23;;
8159;SDS011;27404;52.398;9.646;2022-07-18T05:15:39;3.35;;;1.30;;
8159;SDS011;27404;52.398;9.646;2022-07-18T05:18:04;4.40;;;1.17;;
8159;SDS011;27404;52.398;9.646;2022-07-18T05:20:29;2.13;;;1.25;;
8159;SDS011;27404;52.398;9.646;2022-07-18T05:22:55;2.72;;;1.30;;
8159;SDS011;27404;52.398;9.646;2022-07-18T05:25:21;2.25;;;1.40;;
8159;SDS011;27404;52.398;9.646;2022-07-18T05:27:51;2.33;;;1.10;;
8159;SDS011;27404;52.398;9.646;2022-07-18T05:30:16;5.50;;;1.45;;
8159;SDS011;27404;52.398;9.646;2022-07-18T05:32:42;2.17;;;1.23;;
8159;SDS011;27404;52.398;9.646;2022-07-18T05:35:09;3.00;;;1.48;;
8159;SDS011;27404;52.398;9.646;2022-07-18T05:37:36;4.25;;;1.20;;
8159;SDS011;27404;52.398;9.646;2022-07-18T05:40:07;5.82;;;1.60;;
8159;SDS011;27404;52.398;9.646;2022-07-18T05:42:34;5.35;;;1.38;;
8159;SDS011;27404;52.398;9.646;2022-07-18T05:45:00;3.67;;;1.42;;
8159;SDS011;27404;52.398;9.646;2022-07-18T05:47:25;2.35;;;1.20;;
8159;SDS011;27404;52.398;9.646;2022-07-18T05:49:51;4.32;;;1.40;;
8159;SDS011;27404;52.398;9.646;2022-07-18T05:52:16;3.83;;;1.20;;
8159;SDS011;27404;52.398;9.646;2022-07-18T05:54:42;6.88;;;1.27;;
8159;SDS011;27404;52.398;9.646;2022-07-18T05:57:07;2.63;;;1.13;;
8159;SDS011;27404;52.398;9.646;2022-07-18T05:59:33;3.47;;;1.25;;
8159;SDS011;27404;52.398;9.646;2022-07-18T06:01:59;5.13;;;1.20;;
8159;SDS011;27404;52.398;9.646;2022-07-18T06:04:24;4.45;;;1.38;;
8159;SDS011;27404;52.398;9.646;2022-07-18T06:06:50;2.63;;;1.35;;
8159;SDS011;27404;52.398;9.646;2022-07-18T06:09:15;4.47;;;1.20;;
8159;SDS011;27404;52.398;9.646;2022-07-18T06:11:42;4.60;;;1.50;;
8159;SDS011;27404;52.398;9.646;2022-07-18T06:14:07;2.72;;;1.63;;
8159;SDS011;27404;52.398;9.646;2022-07-18T06:16:33;5.38;;;1.20;;
8159;SDS011;27404;52.398;9.646;2022-07-18T06:18:58;3.75;;;1.27;;
8159;SDS011;27404;52.398;9.646;2022-07-18T06:21:24;3.20;;;1.50;;
8159;SDS011;27404;52.398;9.646;2022-07-18T06:23:50;4.00;;;1.30;;
8159;SDS011;27404;52.398;9.646;2022-07-18T06:26:16;3.60;;;1.17;;
8159;SDS011;27404;52.398;9.646;2022-07-18T06:28:41;4.60;;;1.27;;
8159;SDS011;27404;52.398;9.646;2022-07-18T06:31:07;3.00;;;1.30;;
8159;SDS011;27404;52.398;9.646;2022-07-18T06:33:32;1.17;;;1.00;;
8159;SDS011;27404;52.398;9.646;2022-07-18T06:35:58;4.03;;;1.48;;
8159;SDS011;27404;52.398;9.646;2022-07-18T06:38:23;2.80;;;1.15;;
8159;SDS011;27404;52.398;9.646;2022-07-18T06:40:48;2.35;;;1.20;;
8159;SDS011;27404;52.398;9.646;2022-07-18T06:43:14;3.00;;;1.17;;
8159;SDS011;27404;52.398;9.646;2022-07-18T06:45:44;4.97;;;1.20;;
8159;SDS011;27404;52.398;9.646;2022-07-18T06:48:11;5.10;;;1.27;;
8159;SDS011;27404;52.398;9.646;2022-07-18T06:50:38;2.35;;;1.20;;
8159;SDS011;27404;52.398;9.646;2022-07-18T06:53:03;5.03;;;1.20;;
8159;SDS011;27404;52.398;9.646;2022-07-18T06:55:29;5.43;;;1.25;;
8159;SDS011;27404;52.398;9.646;2022-07-18T06:57:54;2.90;;;1.30;;
8159;SDS011;27404;52.398;9.646;2022-07-18T07:00:20;3.58;;;1.42;;
8159;SDS011;27404;52.398;9.646;2022-07-18T07:02:46;2.85;;;1.35;;
8159;SDS011;27404;52.398;9.646;2022-07-18T07:05:14;3.03;;;1.45;;
8159;SDS011;27404;52.398;9.646;2022-07-18T07:07:44;2.45;;;1.30;;
8159;SDS011;27404;52.398;9.646;2022-07-18T07:10:10;2.60;;;1.30;;
8159;SDS011;27404;52.398;9.646;2022-07-18T07:12:43;4.63;;;1.27;;
8159;SDS011;27404;52.398;9.646;2022-07-18T07:15:10;7.55;;;1.50;;
8159;SDS011;27404;52.398;9.646;2022-07-18T07:17:36;2.92;;;1.20;;
8159;SDS011;27404;52.398;9.646;2022-07-18T07:20:03;1.83;;;1.02;;
8159;SDS011;27404;52.398;9.646;2022-07-18T07:22:30;4.40;;;1.10;;
8159;SDS011;27404;52.398;9.646;2022-07-18T07:24:56;5.43;;;1.45;;
8159;SDS011;27404;52.398;9.646;2022-07-18T07:27:23;2.92;;;1.40;;
8159;SDS011;27404;52.398;9.646;2022-07-18T07:29:48;3.80;;;1.42;;
8159;SDS011;27404;52.398;9.646;2022-07-18T07:32:14;1.85;;;1.10;;
8159;SDS011;27404;52.398;9.646;2022-07-18T07:34:39;4.32;;;1.35;;
8159;SDS011;27404;52.398;9.646;2022-07-18T07:37:05;4.18;;;1.40;;
8159;SDS011;27404;52.398;9.646;2022-07-18T07:39:30;4.65;;;1.38;;
8159;SDS011;27404;52.398;9.646;2022-07-18T07:41:56;2.72;;;1.50;;
8159;SDS011;27404;52.398;9.646;2022-07-18T07:44:21;3.75;;;1.35;;
8159;SDS011;27404;52.398;9.646;2022-07-18T07:46:46;3.30;;;1.30;;
8159;SDS011;27404;52.398;9.646;2022-07-18T07:49:12;4.57;;;1.40;;
8159;SDS011;27404;52.398;9.646;2022-07-18T07:51:37;1.83;;;1.10;;
8159;SDS011;27404;52.398;9.646;2022-07-18T07:54:03;3.78;;;1.60;;
8159;SDS011;27404;52.398;9.646;2022-07-18T07:56:30;4.63;;;1.40;;
8159;SDS011;27404;52.398;9.646;2022-07-18T07:58:56;3.58;;;1.60;;
8159;SDS011;27404;52.398;9.646;2022-07-18T08:01:21;4.95;;;1.65;;
8159;SDS011;27404;52.398;9.646;2022-07-18T08:03:47;4.43;;;1.55;;
8159;SDS011;27404;52.398;9.646;2022-07-18T08:06:14;3.40;;;1.55;;
8159;SDS011;27404;52.398;9.646;2022-07-18T08:08:39;7.35;;;1.60;;
8159;SDS011;27404;52.398;9.646;2022-07-18T08:11:05;5.53;;;1.55;;
8159;SDS011;27404;52.398;9.646;2022-07-18T08:13:31;6.13;;;1.75;;
8159;SDS011;27404;52.398;9.646;2022-07-18T08:15:56;8.65;;;1.88;;
8159;SDS011;27404;52.398;9.646;2022-07-18T08:18:22;12.98;;;2.45;;
8159;SDS011;27404;52.398;9.646;2022-07-18T08:20:47;5.97;;;1.48;;
8159;SDS011;27404;52.398;9.646;2022-07-18T08:23:13;5.07;;;1.25;;
8159;SDS011;27404;52.398;9.646;2022-07-18T08:25:39;5.65;;;1.38;;
8159;SDS011;27404;52.398;9.646;2022-07-18T08:28:06;2.85;;;1.20;;
8159;SDS011;27404;52.398;9.646;2022-07-18T08:30:32;4.28;;;1.20;;
8159;SDS011;27404;52.398;9.646;2022-07-18T08:32:59;3.50;;;1.40;;
8159;SDS011;27404;52.398;9.646;2022-07-18T08:35:26;3.47;;;1.25;;
8159;SDS011;27404;52.398;9.646;2022-07-18T08:37:52;3.97;;;1.70;;
8159;SDS011;27404;52.398;9.646;2022-07-18T08:40:17;3.38;;;1.13;;
8159;SDS011;27404;52.398;9.646;2022-07-18T08:42:42;2.05;;;1.20;;
8159;SDS011;27404;52.398;9.646;2022-07-18T08:45:08;4.55;;;1.20;;
8159;SDS011;27404;52.398;9.646;2022-07-18T08:47:34;7.25;;;1.35;;
8159;SDS011;27404;52.398;9.646;2022-07-18T08:50:00;2.00;;;1.13;;
8159;SDS011;27404;52.398;9.646;2022-07-18T08:52:27;2.25;;;1.10;;
8159;SDS011;27404;52.398;9.646;2022-07-18T08:54:54;2.97;;;1.45;;
8159;SDS011;27404;52.398;9.646;2022-07-18T08:57:20;2.45;;;1.20;;
8159;SDS011;27404;52.398;9.646;2022-07-18T08:59:47;7.10;;;1.50;;
8159;SDS011;27404;52.398;9.646;2022-07-18T09:02:12;2.78;;;1.48;;
8159;SDS011;27404;52.398;9.646;2022-07-18T09:04:39;4.97;;;2.05;;
8159;SDS011;27404;52.398;9.646;2022-07-18T09:07:09;3.08;;;1.67;;
8159;SDS011;27404;52.398;9.646;2022-07-18T09:09:57;3.30;;;1.77;;
8159;SDS011;27404;52.398;9.646;2022-07-18T09:12:28;2.70;;;1.70;;
8159;SDS011;27404;52.398;9.646;2022-07-18T09:14:56;3.03;;;1.40;;
8159;SDS011;27404;52.398;9.646;2022-07-18T09:17:23;4.10;;;1.77;;
8159;SDS011;27404;52.398;9.646;2022-07-18T09:20:00;4.13;;;1.50;;
8159;SDS011;27404;52.398;9.646;2022-07-18T09:22:31;3.55;;;1.83;;
8159;SDS011;27404;52.398;9.646;2022-07-18T09:25:11;5.10;;;1.83;;
8159;SDS011;27404;52.398;9.646;2022-07-18T09:27:42;2.55;;;1.50;;
8159;SDS011;27404;52.398;9.646;2022-07-18T09:30:28;2.45;;;1.70;;
8159;SDS011;27404;52.398;9.646;2022-07-18T09:35:28;3.75;;;1.80;;
8159;SDS011;27404;52.398;9.646;2022-07-18T09:38:20;5.57;;;1.85;;
8159;SDS011;27404;52.398;9.646;2022-07-18T09:40:48;3.53;;;2.40;;
8159;SDS011;27404;52.398;9.646;2022-07-18T09:43:16;2.88;;;1.88;;
8159;SDS011;27404;52.398;9.646;2022-07-18T09:48:12;8.38;;;2.17;;
8159;SDS011;27404;52.398;9.646;2022-07-18T09:50:44;2.67;;;1.80;;
8159;SDS011;27404;52.398;9.646;2022-07-18T09:53:15;4.80;;;1.92;;
8159;SDS011;27404;52.398;9.646;2022-07-18T09:56:28;3.95;;;2.33;;
8159;SDS011;27404;52.398;9.646;2022-07-18T09:58:37;5.38;;;2.70;;
8159;SDS011;27404;52.398;9.646;2022-07-18T10:01:05;6.03;;;3.20;;
8159;SDS011;27404;52.398;9.646;2022-07-18T10:03:32;7.82;;;2.60;;
8159;SDS011;27404;52.398;9.646;2022-07-18T10:05:59;3.72;;;3.05;;
8159;SDS011;27404;52.398;9.646;2022-07-18T10:08:27;4.10;;;2.72;;
8159;SDS011;27404;52.398;9.646;2022-07-18T10:10:54;10.85;;;2.65;;
8159;SDS011;27404;52.398;9.646;2022-07-18T10:13:22;4.35;;;3.00;;
8159;SDS011;27404;52.398;9.646;2022-07-18T10:15:49;4.38;;;3.40;;
8159;SDS011;27404;52.398;9.646;2022-07-18T10:18:17;5.63;;;2.88;;
8159;SDS011;27404;52.398;9.646;2022-07-18T10:20:50;4.45;;;3.25;;
8159;SDS011;27404;52.398;9.646;2022-07-18T10:23:23;5.22;;;3.25;;
8159;SDS011;27404;52.398;9.646;2022-07-18T10:26:07;7.25;;;3.40;;
8159;SDS011;27404;52.398;9.646;2022-07-18T10:31:26;4.38;;;2.83;;
8159;SDS011;27404;52.398;9.646;2022-07-18T10:36:38;5.18;;;3.15;;
8159;SDS011;27404;52.398;9.646;2022-07-18T10:39:12;3.78;;;3.28;;
8159;SDS011;27404;52.398;9.646;2022-07-18T10:57:30;3.90;;;2.60;;
8159;SDS011;27404;52.398;9.646;2022-07-18T11:02:38;3.72;;;2.38;;
8159;SDS011;27404;52.398;9.646;2022-07-18T11:05:31;3.92;;;2.28;;
8159;SDS011;27404;52.398;9.646;2022-07-18T11:16:03;3.83;;;2.00;;
8159;SDS011;27404;52.398;9.646;2022-07-18T11:19:17;2.78;;;2.13;;
8159;SDS011;27404;52.398;9.646;2022-07-18T11:21:27;6.45;;;2.38;;
8159;SDS011;27404;52.398;9.646;2022-07-18T11:24:01;3.92;;;2.10;;
8159;SDS011;27404;52.398;9.646;2022-07-18T11:26:31;2.35;;;1.85;;
8159;SDS011;27404;52.398;9.646;2022-07-18T11:29:02;5.20;;;2.30;;
8159;SDS011;27404;52.398;9.646;2022-07-18T11:31:42;2.75;;;1.92;;
8159;SDS011;27404;52.398;9.646;2022-07-18T11:34:08;4.22;;;2.08;;
8159;SDS011;27404;52.398;9.646;2022-07-18T11:36:33;4.65;;;2.10;;
8159;SDS011;27404;52.398;9.646;2022-07-18T11:39:00;4.85;;;2.40;;
8159;SDS011;27404;52.398;9.646;2022-07-18T11:41:27;3.83;;;2.10;;
8159;SDS011;27404;52.398;9.646;2022-07-18T11:43:54;3.15;;;2.10;;
8159;SDS011;27404;52.398;9.646;2022-07-18T11:46:21;3.50;;;2.40;;
8159;SDS011;27404;52.398;9.646;2022-07-18T11:48:49;2.38;;;2.10;;
8159;SDS011;27404;52.398;9.646;2022-07-18T11:51:23;3.90;;;2.28;;
8159;SDS011;27404;52.398;9.646;2022-07-18T11:53:49;3.95;;;2.20;;
8159;SDS011;27404;52.398;9.646;2022-07-18T11:56:16;4.50;;;2.75;;
8159;SDS011;27404;52.398;9.646;2022-07-18T11:58:44;3.80;;;2.10;;
8159;SDS011;27404;52.398;9.646;2022-07-18T12:01:11;3.30;;;2.13;;
8159;SDS011;27404;52.398;9.646;2022-07-18T12:03:41;2.70;;;2.05;;
8159;SDS011;27404;52.398;9.646;2022-07-18T12:06:17;4.10;;;2.10;;
8159;SDS011;27404;52.398;9.646;2022-07-18T12:19:11;3.47;;;2.28;;
8159;SDS011;27404;52.398;9.646;2022-07-18T12:21:43;3.83;;;2.00;;
8159;SDS011;27404;52.398;9.646;2022-07-18T12:35:19;2.75;;;1.90;;
8159;SDS011;27404;52.398;9.646;2022-07-18T12:37:51;4.30;;;2.03;;
8159;SDS011;27404;52.398;9.646;2022-07-18T12:40:23;2.25;;;1.70;;
8159;SDS011;27404;52.398;9.646;2022-07-18T12:42:56;3.15;;;2.17;;
8159;SDS011;27404;52.398;9.646;2022-07-18T12:45:27;4.45;;;2.20;;
8159;SDS011;27404;52.398;9.646;2022-07-18T12:47:53;2.85;;;1.95;;
8159;SDS011;27404;52.398;9.646;2022-07-18T12:50:18;2.83;;;2.00;;
8159;SDS011;27404;52.398;9.646;2022-07-18T12:52:43;2.25;;;1.98;;
8159;SDS011;27404;52.398;9.646;2022-07-18T12:55:09;2.53;;;2.10;;
8159;SDS011;27404;52.398;9.646;2022-07-18T12:57:34;2.53;;;2.03;;
8159;SDS011;27404;52.398;9.646;2022-07-18T13:00:00;5.80;;;1.98;;
8159;SDS011;27404;52.398;9.646;2022-07-18T13:02:25;2.63;;;1.80;;
8159;SDS011;27404;52.398;9.646;2022-07-18T13:04:51;2.55;;;1.83;;
8159;SDS011;27404;52.398;9.646;2022-07-18T13:07:16;3.85;;;1.80;;
8159;SDS011;27404;52.398;9.646;2022-07-18T13:09:42;3.35;;;1.98;;
8159;SDS011;27404;52.398;9.646;2022-07-18T13:12:07;4.57;;;2.10;;
8159;SDS011;27404;52.398;9.646;2022-07-18T13:14:33;5.40;;;2.08;;
8159;SDS011;27404;52.398;9.646;2022-07-18T13:16:59;2.55;;;1.45;;
8159;SDS011;27404;52.398;9.646;2022-07-18T13:19:24;4.15;;;1.75;;
8159;SDS011;27404;52.398;9.646;2022-07-18T13:21:50;3.53;;;1.70;;
8159;SDS011;27404;52.398;9.646;2022-07-18T13:24:15;7.90;;;1.98;;
8159;SDS011;27404;52.398;9.646;2022-07-18T13:26:41;5.32;;;1.63;;
8159;SDS011;27404;52.398;9.646;2022-07-18T13:29:07;6.65;;;2.00;;
8159;SDS011;27404;52.398;9.646;2022-07-18T13:31:33;3.38;;;2.05;;
8159;SDS011;27404;52.398;9.646;2022-07-18T13:33:59;2.55;;;1.83;;
8159;SDS011;27404;52.398;9.646;2022-07-18T13:36:25;4.68;;;2.03;;
8159;SDS011;27404;52.398;9.646;2022-07-18T13:38:50;3.22;;;1.85;;
8159;SDS011;27404;52.398;9.646;2022-07-18T13:41:16;3.42;;;1.90;;
8159;SDS011;27404;52.398;9.646;2022-07-18T13:43:41;3.85;;;1.80;;
8159;SDS011;27404;52.398;9.646;2022-07-18T13:46:07;2.63;;;2.00;;
8159;SDS011;27404;52.398;9.646;2022-07-18T13:48:34;5.13;;;2.10;;
8159;SDS011;27404;52.398;9.646;2022-07-18T13:50:59;2.72;;;2.28;;
8159;SDS011;27404;52.398;9.646;2022-07-18T13:53:25;4.38;;;2.10;;
8159;SDS011;27404;52.398;9.646;2022-07-18T13:55:51;2.50;;;1.77;;
8159;SDS011;27404;52.398;9.646;2022-07-18T13:58:17;2.17;;;1.83;;
8159;SDS011;27404;52.398;9.646;2022-07-18T14:00:43;5.65;;;2.15;;
8159;SDS011;27404;52.398;9.646;2022-07-18T14:03:09;6.68;;;2.40;;
8159;SDS011;27404;52.398;9.646;2022-07-18T14:05:35;3.97;;;2.20;;
8159;SDS011;27404;52.398;9.646;2022-07-18T14:08:00;3.65;;;2.17;;
8159;SDS011;27404;52.398;9.646;2022-07-18T14:10:26;4.40;;;2.70;;
8159;SDS011;27404;52.398;9.646;2022-07-18T14:12:51;5.28;;;2.20;;
8159;SDS011;27404;52.398;9.646;2022-07-18T14:15:17;4.95;;;2.08;;
8159;SDS011;27404;52.398;9.646;2022-07-18T14:17:42;4.65;;;2.10;;
8159;SDS011;27404;52.398;9.646;2022-07-18T14:20:08;5.60;;;2.15;;
8159;SDS011;27404;52.398;9.646;2022-07-18T14:22:36;3.72;;;2.10;;
8159;SDS011;27404;52.398;9.646;2022-07-18T14:25:03;4.45;;;2.15;;
8159;SDS011;27404;52.398;9.646;2022-07-18T14:27:30;3.17;;;1.83;;
8159;SDS011;27404;52.398;9.646;2022-07-18T14:29:55;2.85;;;2.03;;
8159;SDS011;27404;52.398;9.646;2022-07-18T14:32:21;3.35;;;1.90;;
8159;SDS011;27404;52.398;9.646;2022-07-18T14:34:47;3.45;;;1.92;;
8159;SDS011;27404;52.398;9.646;2022-07-18T14:37:12;2.60;;;1.77;;
8159;SDS011;27404;52.398;9.646;2022-07-18T14:39:38;3.50;;;2.05;;
8159;SDS011;27404;52.398;9.646;2022-07-18T14:42:03;4.68;;;1.88;;
8159;SDS011;27404;52.398;9.646;2022-07-18T14:44:28;2.63;;;1.85;;
8159;SDS011;27404;52.398;9.646;2022-07-18T14:46:54;3.58;;;1.98;;
8159;SDS011;27404;52.398;9.646;2022-07-18T14:49:19;2.70;;;1.88;;
8159;SDS011;27404;52.398;9.646;2022-07-18T14:51:45;2.60;;;1.90;;
8159;SDS011;27404;52.398;9.646;2022-07-18T14:54:10;3.92;;;1.90;;
8159;SDS011;27404;52.398;9.646;2022-07-18T14:56:37;3.30;;;1.90;;
8159;SDS011;27404;52.398;9.646;2022-07-18T14:59:02;4.78;;;1.80;;
8159;SDS011;27404;52.398;9.646;2022-07-18T15:01:28;3.72;;;2.03;;
8159;SDS011;27404;52.398;9.646;2022-07-18T15:03:56;6.25;;;1.70;;
8159;SDS011;27404;52.398;9.646;2022-07-18T15:06:22;2.85;;;1.77;;
8159;SDS011;27404;52.398;9.646;2022-07-18T15:08:47;5.82;;;2.03;;
8159;SDS011;27404;52.398;9.646;2022-07-18T15:11:13;3.35;;;2.00;;
8159;SDS011;27404;52.398;9.646;2022-07-18T15:13:38;2.60;;;1.45;;
8159;SDS011;27404;52.398;9.646;2022-07-18T15:16:04;4.75;;;1.60;;
8159;SDS011;27404;52.398;9.646;2022-07-18T15:18:30;2.95;;;2.08;;
8159;SDS011;27404;52.398;9.646;2022-07-18T15:20:55;2.63;;;1.63;;
8159;SDS011;27404;52.398;9.646;2022-07-18T15:23:21;2.65;;;1.70;;
8159;SDS011;27404;52.398;9.646;2022-07-18T15:25:46;3.97;;;2.00;;
8159;SDS011;27404;52.398;9.646;2022-07-18T15:28:11;2.78;;;1.55;;
8159;SDS011;27404;52.398;9.646;2022-07-18T15:30:37;3.45;;;1.70;;
8159;SDS011;27404;52.398;9.646;2022-07-18T15:33:02;3.63;;;2.25;;
8159;SDS011;27404;52.398;9.646;2022-07-18T15:35:28;2.33;;;1.60;;
8159;SDS011;27404;52.398;9.646;2022-07-18T15:37:53;2.72;;;1.60;;
8159;SDS011;27404;52.398;9.646;2022-07-18T15:40:18;3.42;;;1.60;;
8159;SDS011;27404;52.398;9.646;2022-07-18T15:42:44;6.25;;;1.85;;
8159;SDS011;27404;52.398;9.646;2022-07-18T15:45:10;4.50;;;1.80;;
8159;SDS011;27404;52.398;9.646;2022-07-18T15:47:35;4.40;;;2.22;;
8159;SDS011;27404;52.398;9.646;2022-07-18T15:50:01;3.55;;;1.88;;
8159;SDS011;27404;52.398;9.646;2022-07-18T15:52:27;4.32;;;2.17;;
8159;SDS011;27404;52.398;9.646;2022-07-18T15:54:52;2.45;;;1.60;;
8159;SDS011;27404;52.398;9.646;2022-07-18T15:57:17;2.85;;;1.90;;